createdAt,value
2022-07-28T00:00:27.102Z,14.05
2022-07-28T00:02:54.654Z,21.23
2022-07-28T00:05:22.390Z,18.35
2022-07-28T00:07:53.023Z,16.25
2022-07-28T00:10:20.625Z,14.57
2022-07-28T00:12:48.474Z,12.65
2022-07-28T00:15:18.305Z,13.77
2022-07-28T00:17:46.397Z,31.25
2022-07-28T00:20:14.412Z,47.35
2022-07-28T00:22:44.542Z,28.48
2022-07-28T00:25:12.646Z,16.35
2022-07-28T00:27:40.890Z,17.13
2022-07-28T00:30:09.014Z,18.17
2022-07-28T00:32:37.706Z,16.65
2022-07-28T00:35:08.055Z,16.13
2022-07-28T00:37:38.646Z,15.15
2022-07-28T00:40:09.108Z,17.90
2022-07-28T00:42:36.668Z,16.50
2022-07-28T00:45:04.722Z,21.60
2022-07-28T00:47:33.663Z,20.13
2022-07-28T00:50:02.964Z,19.23
2022-07-28T00:52:33.385Z,21.08
2022-07-28T00:55:07.089Z,16.00
2022-07-28T00:57:35.263Z,16.15
2022-07-28T01:00:03.954Z,15.25
2022-07-28T01:02:32.432Z,22.38
2022-07-28T01:04:59.914Z,20.25
2022-07-28T01:07:42.730Z,17.95
2022-07-28T01:10:18.705Z,15.73
2022-07-28T01:13:06.354Z,15.40
2022-07-28T01:15:40.051Z,15.38
2022-07-28T01:18:26.699Z,15.45
2022-07-28T01:21:02.926Z,17.23
2022-07-28T01:23:33.570Z,16.83
2022-07-28T01:26:37.975Z,21.65
2022-07-28T01:29:46.414Z,18.75
2022-07-28T01:32:17.376Z,20.98
2022-07-28T01:34:52.713Z,18.20
2022-07-28T01:37:26.573Z,15.63
2022-07-28T01:39:56.916Z,16.40
2022-07-28T01:42:28.253Z,18.17
2022-07-28T01:44:56.283Z,18.17
2022-07-28T01:47:29.365Z,14.57
2022-07-28T01:50:00.615Z,15.63
2022-07-28T01:52:29.407Z,16.17
2022-07-28T01:54:58.436Z,14.35
2022-07-28T01:57:26.800Z,16.70
2022-07-28T01:59:54.722Z,17.55
2022-07-28T02:02:25.125Z,18.17
2022-07-28T02:04:53.692Z,15.73
2022-07-28T02:07:22.478Z,16.38
2022-07-28T02:09:53.422Z,16.13
2022-07-28T02:12:21.792Z,17.40
2022-07-28T02:14:50.688Z,21.08
2022-07-28T02:17:30.771Z,16.30
2022-07-28T02:19:58.887Z,18.40
2022-07-28T02:22:27.972Z,17.52
2022-07-28T02:24:55.853Z,17.67
2022-07-28T02:27:51.112Z,16.13
2022-07-28T02:30:25.726Z,16.58
2022-07-28T02:33:11.845Z,16.50
2022-07-28T02:35:53.942Z,15.70
2022-07-28T02:38:29.021Z,15.77
2022-07-28T02:41:10.997Z,14.90
2022-07-28T02:43:45.799Z,13.93
2022-07-28T02:46:20.400Z,18.77
2022-07-28T02:48:50.955Z,14.10
2022-07-28T02:51:19.252Z,16.58
2022-07-28T02:53:47.029Z,15.63
2022-07-28T02:56:16.671Z,16.90
2022-07-28T02:58:45.906Z,18.48
2022-07-28T03:01:14.613Z,19.63
2022-07-28T03:03:44.125Z,19.13
2022-07-28T03:06:12.098Z,21.10
2022-07-28T03:08:39.949Z,22.75
2022-07-28T03:11:13.220Z,22.80
2022-07-28T03:13:43.724Z,26.15
2022-07-28T03:16:11.346Z,24.60
2022-07-28T03:18:38.710Z,23.50
2022-07-28T03:21:06.880Z,15.82
2022-07-28T03:23:40.765Z,17.20
2022-07-28T03:26:23.544Z,22.05
2022-07-28T03:28:53.500Z,20.95
2022-07-28T03:31:22.211Z,19.80
2022-07-28T03:33:50.008Z,19.02
2022-07-28T03:36:25.147Z,21.95
2022-07-28T03:38:59.361Z,18.35
2022-07-28T03:41:27.703Z,19.70
2022-07-28T03:43:55.848Z,15.90
2022-07-28T03:46:23.529Z,14.68
2022-07-28T03:48:51.933Z,13.73
2022-07-28T03:51:20.071Z,15.60
2022-07-28T03:53:47.592Z,15.57
2022-07-28T03:56:15.800Z,16.58
2022-07-28T03:58:43.785Z,15.05
2022-07-28T04:01:14.145Z,17.42
2022-07-28T04:03:44.259Z,15.02
2022-07-28T04:06:15.760Z,33.08
2022-07-28T04:08:44.258Z,18.38
2022-07-28T04:11:15.811Z,17.17
2022-07-28T04:13:44.893Z,16.63
2022-07-28T04:16:12.501Z,15.02
2022-07-28T04:18:42.785Z,15.30
2022-07-28T04:21:10.717Z,14.25
2022-07-28T04:23:38.115Z,18.02
2022-07-28T04:26:06.244Z,12.68
2022-07-28T04:28:34.308Z,16.88
2022-07-28T04:31:03.023Z,14.30
2022-07-28T04:33:31.144Z,18.40
2022-07-28T04:35:58.634Z,32.42
2022-07-28T04:38:26.638Z,17.67
2022-07-28T04:40:54.088Z,18.02
2022-07-28T04:43:22.921Z,15.48
2022-07-28T04:45:54.626Z,16.73
2022-07-28T04:48:25.826Z,15.68
2022-07-28T04:50:53.983Z,16.10
2022-07-28T04:53:22.865Z,15.98
2022-07-28T04:55:53.432Z,15.50
2022-07-28T04:58:23.306Z,15.00
2022-07-28T05:00:51.369Z,12.57
2022-07-28T05:03:23.447Z,13.52
2022-07-28T05:05:54.662Z,13.77
2022-07-28T05:08:25.692Z,16.88
2022-07-28T05:10:56.302Z,14.48
2022-07-28T05:13:24.187Z,11.60
2022-07-28T05:15:57.148Z,13.98
2022-07-28T05:18:26.022Z,11.20
2022-07-28T05:20:55.756Z,13.27
2022-07-28T05:23:23.214Z,12.07
2022-07-28T05:25:52.371Z,9.65
2022-07-28T05:28:19.888Z,10.32
2022-07-28T05:30:48.151Z,12.13
2022-07-28T05:33:16.123Z,9.10
2022-07-28T05:35:52.610Z,9.10
2022-07-28T05:38:20.703Z,8.20
2022-07-28T05:40:49.492Z,8.30
2022-07-28T05:46:05.886Z,6.80
2022-07-28T05:48:34.073Z,6.85
2022-07-28T05:51:03.384Z,7.47
2022-07-28T05:53:31.223Z,6.43
2022-07-28T05:56:00.915Z,6.32
2022-07-28T05:58:31.164Z,6.75
2022-07-28T06:01:00.636Z,5.40
2022-07-28T06:03:32.285Z,4.90
2022-07-28T06:06:14.592Z,4.70
2022-07-28T06:08:47.778Z,4.97
2022-07-28T06:11:22.393Z,5.65
2022-07-28T06:13:58.998Z,5.55
2022-07-28T06:16:42.346Z,5.60
2022-07-28T06:19:10.100Z,6.68
2022-07-28T06:21:37.707Z,7.82
2022-07-28T06:24:07.929Z,9.77
2022-07-28T06:26:43.680Z,10.70
2022-07-28T06:29:13.098Z,11.13
2022-07-28T06:31:44.718Z,10.90
2022-07-28T06:34:16.213Z,14.50
2022-07-28T06:36:44.587Z,14.73
2022-07-28T06:39:16.201Z,14.82
2022-07-28T06:41:50.674Z,17.92
2022-07-28T06:44:23.114Z,18.65
2022-07-28T06:46:52.365Z,18.23
2022-07-28T06:49:20.634Z,27.67
2022-07-28T06:51:48.884Z,25.73
2022-07-28T06:54:21.449Z,23.52
2022-07-28T06:56:50.479Z,21.40
2022-07-28T06:59:18.243Z,23.45
2022-07-28T07:01:47.249Z,21.00
2022-07-28T07:04:15.168Z,17.45
2022-07-28T07:06:44.553Z,13.88
2022-07-28T07:09:12.281Z,10.57
2022-07-28T07:11:41.648Z,9.82
2022-07-28T07:14:09.424Z,9.57
2022-07-28T07:16:38.532Z,19.23
2022-07-28T07:19:12.594Z,10.80
2022-07-28T07:21:44.629Z,13.05
2022-07-28T07:24:14.742Z,12.25
2022-07-28T07:26:42.945Z,12.02
2022-07-28T07:29:11.456Z,8.85
2022-07-28T07:31:40.048Z,9.80
2022-07-28T07:34:08.960Z,9.45
2022-07-28T07:36:37.185Z,6.93
2022-07-28T07:39:06.860Z,8.80
2022-07-28T07:41:34.659Z,9.68
2022-07-28T07:44:02.321Z,8.13
2022-07-28T07:46:30.322Z,8.57
2022-07-28T07:48:58.378Z,13.10
2022-07-28T07:51:26.121Z,7.10
2022-07-28T07:53:55.016Z,8.25
2022-07-28T07:56:22.976Z,7.70
2022-07-28T07:58:56.852Z,8.80
2022-07-28T08:01:25.364Z,10.45
2022-07-28T08:03:53.727Z,8.98
2022-07-28T08:06:26.321Z,5.82
2022-07-28T08:08:55.174Z,6.00
2022-07-28T08:11:25.901Z,5.80
2022-07-28T08:13:53.936Z,5.68
2022-07-28T08:16:24.962Z,7.82
2022-07-28T08:18:53.956Z,5.88
2022-07-28T08:21:22.503Z,6.00
2022-07-28T08:23:51.075Z,6.40
2022-07-28T08:26:19.606Z,6.03
2022-07-28T08:28:47.542Z,5.43
2022-07-28T08:31:17.896Z,5.40
2022-07-28T08:33:53.709Z,9.23
2022-07-28T08:36:22.863Z,6.10
2022-07-28T08:38:54.405Z,5.95
2022-07-28T08:41:42.029Z,7.65
2022-07-28T08:44:12.263Z,5.10
2022-07-28T08:46:43.155Z,5.55
2022-07-28T08:49:14.946Z,6.35
2022-07-28T08:51:45.177Z,5.43
2022-07-28T08:54:17.119Z,5.55
2022-07-28T08:56:48.120Z,8.68
2022-07-28T08:59:16.196Z,7.57
2022-07-28T09:01:50.641Z,5.97
2022-07-28T09:04:21.462Z,5.70
2022-07-28T09:06:52.481Z,5.82
2022-07-28T09:09:21.751Z,8.30
2022-07-28T09:11:53.763Z,7.80
2022-07-28T09:14:26.850Z,6.07
2022-07-28T09:16:55.263Z,6.35
2022-07-28T09:19:24.145Z,5.93
2022-07-28T09:21:56.911Z,5.90
2022-07-28T09:24:40.539Z,6.15
2022-07-28T09:27:12.288Z,8.15
2022-07-28T09:29:45.176Z,6.57
2022-07-28T09:32:19.031Z,5.90
2022-07-28T09:34:51.869Z,6.05
2022-07-28T09:37:27.712Z,8.80
2022-07-28T09:40:03.905Z,6.78
2022-07-28T09:42:46.488Z,7.10
2022-07-28T09:45:23.431Z,6.00
2022-07-28T09:48:11.959Z,12.02
2022-07-28T09:50:42.297Z,5.82
2022-07-28T09:53:32.532Z,7.10
2022-07-28T10:27:05.861Z,6.22
2022-07-28T10:29:34.299Z,5.75
2022-07-28T10:32:05.976Z,6.50
2022-07-28T10:34:35.735Z,5.50
2022-07-28T10:37:08.059Z,7.53
2022-07-28T10:39:42.426Z,10.02
2022-07-28T10:42:13.236Z,6.05
2022-07-28T10:44:43.635Z,6.05
2022-07-28T10:47:18.461Z,5.32
2022-07-28T10:49:49.116Z,6.93
2022-07-28T10:52:46.283Z,5.82
2022-07-28T10:55:52.491Z,6.72
2022-07-28T10:58:36.880Z,12.52
2022-07-28T11:01:06.414Z,5.75
2022-07-28T11:03:40.265Z,8.18
2022-07-28T11:06:27.028Z,6.82
2022-07-28T11:09:00.834Z,6.32
2022-07-28T11:11:50.289Z,6.78
2022-07-28T11:14:37.090Z,6.28
2022-07-28T11:17:10.075Z,7.40
2022-07-28T11:20:16.428Z,7.00
2022-07-28T11:22:34.199Z,9.20
2022-07-28T11:25:18.667Z,9.25
2022-07-28T11:27:53.222Z,6.45
2022-07-28T11:30:36.177Z,6.20
2022-07-28T11:33:07.217Z,9.90
2022-07-28T11:35:42.371Z,7.78
2022-07-28T11:38:12.644Z,6.32
2022-07-28T11:40:43.173Z,9.68
2022-07-28T11:43:37.660Z,6.60
2022-07-28T11:46:09.988Z,6.80
2022-07-28T11:48:41.762Z,6.50
2022-07-28T11:51:14.632Z,6.45
2022-07-28T11:53:48.185Z,7.18
2022-07-28T11:56:38.165Z,6.78
2022-07-28T11:59:16.615Z,8.35
2022-07-28T12:01:56.307Z,6.80
2022-07-28T12:04:27.967Z,7.38
2022-07-28T12:06:56.162Z,7.47
2022-07-28T12:09:41.116Z,8.13
2022-07-28T12:12:10.290Z,6.93
2022-07-28T12:14:39.749Z,7.88
2022-07-28T12:17:09.702Z,7.68
2022-07-28T12:19:40.833Z,10.13
2022-07-28T12:22:16.497Z,8.32
2022-07-28T12:24:57.133Z,6.78
2022-07-28T12:27:29.379Z,8.02
2022-07-28T12:30:00.455Z,6.97
2022-07-28T12:32:36.356Z,10.38
2022-07-28T12:35:04.459Z,6.93
2022-07-28T12:37:36.031Z,6.47
2022-07-28T12:40:15.275Z,6.75
2022-07-28T12:42:42.942Z,7.00
2022-07-28T12:45:10.671Z,7.40
2022-07-28T12:47:42.010Z,7.72
2022-07-28T12:50:18.099Z,7.35
2022-07-28T12:53:04.744Z,8.40
2022-07-28T12:55:33.412Z,8.15
2022-07-28T12:58:03.475Z,10.93
2022-07-28T13:00:34.238Z,9.38
2022-07-28T13:03:22.157Z,7.80
2022-07-28T13:06:05.475Z,7.63
2022-07-28T13:08:55.256Z,7.28
2022-07-28T13:11:47.523Z,8.55
2022-07-28T13:14:16.108Z,8.63
2022-07-28T13:16:44.661Z,9.32
2022-07-28T13:19:24.043Z,10.02
2022-07-28T13:22:01.537Z,9.65
2022-07-28T13:24:32.628Z,10.27
2022-07-28T13:27:01.767Z,13.30
2022-07-28T13:29:32.855Z,8.98
2022-07-28T13:32:01.300Z,8.73
2022-07-28T13:34:28.905Z,9.25
2022-07-28T13:36:57.188Z,10.23
2022-07-28T13:39:25.195Z,10.20
2022-07-28T13:41:58.516Z,11.52
2022-07-28T13:44:30.964Z,11.98
2022-07-28T13:46:59.680Z,12.80
2022-07-28T13:49:31.826Z,11.55
2022-07-28T13:52:01.390Z,7.57
2022-07-28T13:54:29.159Z,6.10
2022-07-28T13:56:59.579Z,7.60
2022-07-28T13:59:26.987Z,6.53
2022-07-28T14:01:57.898Z,6.25
2022-07-28T14:04:25.706Z,5.47
2022-07-28T14:06:54.859Z,7.15
2022-07-28T14:09:22.410Z,6.63
2022-07-28T14:11:53.972Z,7.93
2022-07-28T14:14:25.122Z,5.90
2022-07-28T14:16:55.284Z,5.32
2022-07-28T14:19:38.917Z,6.25
2022-07-28T14:22:13.855Z,6.38
2022-07-28T14:24:43.004Z,5.85
2022-07-28T14:27:11.500Z,5.50
2022-07-28T14:29:39.726Z,6.05
2022-07-28T14:32:10.947Z,8.40
2022-07-28T14:34:40.277Z,5.65
2022-07-28T14:37:10.817Z,5.22
2022-07-28T14:39:38.785Z,7.40
2022-07-28T14:42:07.450Z,6.43
2022-07-28T14:44:35.818Z,5.18
2022-07-28T14:47:07.501Z,7.25
2022-07-28T14:49:36.508Z,7.07
2022-07-28T14:52:04.559Z,5.65
2022-07-28T14:54:33.809Z,6.72
2022-07-28T14:57:01.454Z,7.07
2022-07-28T14:59:29.522Z,6.15
2022-07-28T15:01:57.999Z,5.30
2022-07-28T15:04:27.156Z,5.40
2022-07-28T15:06:55.013Z,6.60
2022-07-28T15:09:27.981Z,8.48
2022-07-28T15:12:02.942Z,6.72
2022-07-28T15:14:30.771Z,6.32
2022-07-28T15:17:00.670Z,6.75
2022-07-28T15:19:35.851Z,5.97
2022-07-28T15:22:04.227Z,8.98
2022-07-28T15:24:33.518Z,6.65
2022-07-28T15:27:02.426Z,6.30
2022-07-28T15:29:35.447Z,6.03
2022-07-28T15:32:06.758Z,7.00
2022-07-28T15:34:38.658Z,7.32
2022-07-28T15:37:08.769Z,7.90
2022-07-28T15:39:43.246Z,7.80
2022-07-28T15:42:12.902Z,11.13
2022-07-28T15:44:40.537Z,9.85
2022-07-28T15:47:08.607Z,6.88
2022-07-28T15:49:36.857Z,8.57
2022-07-28T15:52:04.680Z,7.43
2022-07-28T15:54:37.883Z,6.13
2022-07-28T16:05:51.324Z,6.35
2022-07-28T16:11:27.288Z,7.72
2022-07-28T16:14:25.910Z,6.28
2022-07-28T16:20:02.767Z,5.97
2022-07-28T16:25:30.999Z,9.30
2022-07-28T16:34:03.189Z,8.32
2022-07-28T16:36:40.177Z,5.85
2022-07-28T16:39:11.418Z,5.78
2022-07-28T16:44:29.995Z,6.05
2022-07-28T17:19:32.956Z,9.95
2022-07-28T17:22:01.902Z,11.82
2022-07-28T17:24:34.266Z,8.55
2022-07-28T17:29:49.346Z,8.88
2022-07-28T17:32:17.688Z,8.00
2022-07-28T17:34:45.462Z,6.53
2022-07-28T17:37:19.269Z,8.30
2022-07-28T17:39:53.411Z,5.85
2022-07-28T17:42:21.274Z,6.15
2022-07-28T17:44:53.417Z,9.18
2022-07-28T17:47:35.992Z,9.88
2022-07-28T17:50:04.852Z,8.63
2022-07-28T17:52:35.755Z,5.63
2022-07-28T17:55:24.103Z,5.82
2022-07-28T17:57:55.117Z,6.63
2022-07-28T18:00:23.779Z,5.07
2022-07-28T18:03:11.132Z,5.47
2022-07-28T18:05:43.558Z,5.85
2022-07-28T18:08:11.829Z,5.18
2022-07-28T18:10:52.830Z,5.43
2022-07-28T18:26:09.014Z,5.03
2022-07-28T18:28:50.994Z,5.35
2022-07-28T18:34:25.360Z,5.07
2022-07-28T18:37:02.012Z,7.65
2022-07-28T18:39:44.224Z,4.95
2022-07-28T18:48:21.289Z,13.32
2022-07-28T18:59:51.948Z,8.85
2022-07-28T19:02:23.070Z,6.47
2022-07-28T19:05:23.403Z,9.32
2022-07-28T19:07:53.110Z,6.63
2022-07-28T19:10:24.091Z,8.43
2022-07-28T19:13:12.983Z,7.68
2022-07-28T19:15:44.502Z,8.43
2022-07-28T19:18:20.719Z,6.45
2022-07-28T19:20:48.469Z,8.18
2022-07-28T19:23:16.087Z,7.63
2022-07-28T19:25:51.777Z,7.43
2022-07-28T19:28:19.356Z,7.93
2022-07-28T19:31:00.788Z,8.00
2022-07-28T19:33:43.833Z,7.60
2022-07-28T19:36:14.260Z,9.38
2022-07-28T19:38:42.216Z,10.90
2022-07-28T19:41:10.801Z,9.90
2022-07-28T19:43:38.234Z,9.40
2022-07-28T19:46:06.260Z,7.70
2022-07-28T19:48:37.391Z,6.43
2022-07-28T19:51:05.228Z,7.68
2022-07-28T19:53:35.715Z,7.72
2022-07-28T19:56:09.037Z,6.82
2022-07-28T19:58:37.559Z,8.40
2022-07-28T20:01:06.299Z,8.10
2022-07-28T20:04:00.564Z,6.88
2022-07-28T20:06:25.314Z,7.50
2022-07-28T20:09:00.389Z,7.22
2022-07-28T20:11:36.486Z,7.95
2022-07-28T20:14:04.253Z,7.35
2022-07-28T20:16:33.262Z,8.30
2022-07-28T20:19:01.177Z,9.50
2022-07-28T20:21:29.220Z,8.05
2022-07-28T20:24:06.746Z,8.25
2022-07-28T20:26:34.357Z,8.55
2022-07-28T20:29:02.009Z,7.53
2022-07-28T20:31:30.082Z,8.38
2022-07-28T20:33:58.085Z,9.18
2022-07-28T20:36:29.643Z,9.10
2022-07-28T20:38:57.651Z,13.43
2022-07-28T20:41:25.309Z,9.52
2022-07-28T20:44:27.288Z,8.70
2022-07-28T20:46:49.980Z,10.82
2022-07-28T20:49:17.603Z,9.63
2022-07-28T20:51:50.842Z,8.23
2022-07-28T20:54:22.504Z,10.38
2022-07-28T20:56:50.622Z,7.25
2022-07-28T20:59:18.788Z,8.77
2022-07-28T21:01:46.411Z,8.15
2022-07-28T21:04:14.235Z,9.10
2022-07-28T21:06:51.064Z,8.52
2022-07-28T21:09:21.572Z,10.95
2022-07-28T21:11:49.633Z,8.32
2022-07-28T21:14:17.831Z,9.50
2022-07-28T21:16:45.435Z,10.05
2022-07-28T21:19:16.892Z,9.57
2022-07-28T21:21:45.500Z,10.50
2022-07-28T21:24:14.859Z,9.95
2022-07-28T21:26:43.435Z,13.15
2022-07-28T21:32:04.810Z,9.80
2022-07-28T21:34:32.090Z,6.85
2022-07-28T21:37:06.768Z,27.10
2022-07-28T21:39:35.161Z,11.32
2022-07-28T21:42:05.794Z,10.27
2022-07-28T21:44:38.333Z,6.15
2022-07-28T21:47:06.334Z,7.25
2022-07-28T21:49:33.731Z,5.93
2022-07-28T21:52:01.483Z,6.65
2022-07-28T21:54:29.156Z,6.45
2022-07-28T21:56:57.442Z,4.78
2022-07-28T21:59:24.831Z,7.22
2022-07-28T22:01:52.726Z,4.28
2022-07-28T22:04:21.049Z,4.78
2022-07-28T22:06:49.311Z,4.45
2022-07-28T22:09:16.788Z,6.15
2022-07-28T22:11:48.200Z,4.65
2022-07-28T22:14:16.245Z,5.63
2022-07-28T22:16:46.354Z,4.60
2022-07-28T22:19:15.607Z,8.05
2022-07-28T22:21:42.944Z,5.78
2022-07-28T22:24:10.371Z,4.80
2022-07-28T22:26:40.553Z,3.70
2022-07-28T22:29:08.990Z,8.65
2022-07-28T22:31:36.513Z,5.30
2022-07-28T22:34:04.239Z,4.15
2022-07-28T22:36:32.268Z,5.45
2022-07-28T22:39:00.371Z,7.25
2022-07-28T22:41:27.801Z,6.20
2022-07-28T22:43:55.339Z,9.27
2022-07-28T22:46:22.834Z,11.27
2022-07-28T22:48:50.278Z,10.07
2022-07-28T22:51:18.409Z,11.20
2022-07-28T22:53:45.771Z,11.43
2022-07-28T22:56:25.853Z,11.13
2022-07-28T22:58:54.205Z,12.95
2022-07-28T23:01:23.312Z,12.32
2022-07-28T23:03:52.214Z,10.80
2022-07-28T23:06:21.876Z,11.20
2022-07-28T23:08:49.354Z,13.55
2022-07-28T23:11:19.055Z,13.77
2022-07-28T23:13:46.644Z,10.30
2022-07-28T23:16:16.245Z,10.55
2022-07-28T23:18:44.967Z,10.60
2022-07-28T23:21:12.822Z,11.75
2022-07-28T23:23:41.583Z,8.45
2022-07-28T23:26:09.468Z,12.98
2022-07-28T23:28:37.387Z,10.43
2022-07-28T23:31:07.067Z,10.20
2022-07-28T23:33:55.855Z,12.50
2022-07-28T23:36:26.646Z,11.35
2022-07-28T23:38:57.143Z,11.63
2022-07-28T23:41:24.710Z,8.02
2022-07-28T23:43:52.432Z,10.70
2022-07-28T23:46:20.071Z,7.90
2022-07-28T23:48:47.723Z,8.25
2022-07-28T23:51:15.164Z,9.85
2022-07-28T23:53:43.714Z,9.27
2022-07-28T23:56:11.390Z,6.72
2022-07-28T23:58:38.664Z,10.73
